sensor_id;sensor_type;location;lat;lon;timestamp;pressure;altitude;pressure_sealevel;temperature;humidity
77017;BME280;65949;53.132;17.930;2023-02-15T00:01:08;102897.20;;;0.94;79.67
77017;BME280;65949;53.132;17.930;2023-02-15T00:03:35;102898.09;;;0.92;79.75
77017;BME280;65949;53.132;17.930;2023-02-15T00:06:03;102901.20;;;0.92;79.63
77017;BME280;65949;53.132;17.930;2023-02-15T00:08:30;102900.48;;;0.90;79.64
77017;BME280;65949;53.132;17.930;2023-02-15T00:11:07;102898.35;;;0.89;79.66
77017;BME280;65949;53.132;17.930;2023-02-15T00:13:34;102899.08;;;0.90;79.77
77017;BME280;65949;53.132;17.930;2023-02-15T00:16:03;102898.40;;;0.93;79.66
77017;BME280;65949;53.132;17.930;2023-02-15T00:18:30;102895.22;;;0.95;79.58
77017;BME280;65949;53.132;17.930;2023-02-15T00:20:57;102893.31;;;0.97;79.62
77017;BME280;65949;53.132;17.930;2023-02-15T00:23:26;102887.39;;;1.00;79.49
77017;BME280;65949;53.132;17.930;2023-02-15T00:26:03;102888.10;;;1.06;79.49
77017;BME280;65949;53.132;17.930;2023-02-15T00:28:30;102881.49;;;1.11;79.58
77017;BME280;65949;53.132;17.930;2023-02-15T00:31:09;102884.16;;;1.12;79.58
77017;BME280;65949;53.132;17.930;2023-02-15T00:33:38;102884.42;;;1.09;79.65
77017;BME280;65949;53.132;17.930;2023-02-15T00:36:07;102880.48;;;1.09;79.73
77017;BME280;65949;53.132;17.930;2023-02-15T00:38:35;102880.20;;;1.04;79.44
77017;BME280;65949;53.132;17.930;2023-02-15T00:41:04;102880.21;;;0.99;79.84
77017;BME280;65949;53.132;17.930;2023-02-15T00:43:32;102879.69;;;0.97;79.94
77017;BME280;65949;53.132;17.930;2023-02-15T00:46:00;102878.19;;;0.94;79.83
77017;BME280;65949;53.132;17.930;2023-02-15T00:48:26;102877.52;;;0.92;79.87
77017;BME280;65949;53.132;17.930;2023-02-15T00:50:56;102877.00;;;0.94;79.82
77017;BME280;65949;53.132;17.930;2023-02-15T00:53:25;102875.74;;;0.97;79.81
77017;BME280;65949;53.132;17.930;2023-02-15T00:55:52;102878.55;;;1.00;79.93
77017;BME280;65949;53.132;17.930;2023-02-15T00:58:19;102877.25;;;1.07;80.03
77017;BME280;65949;53.132;17.930;2023-02-15T01:00:47;102876.70;;;1.15;79.98
77017;BME280;65949;53.132;17.930;2023-02-15T01:03:15;102875.09;;;1.19;80.08
77017;BME280;65949;53.132;17.930;2023-02-15T01:05:42;102872.35;;;1.25;80.22
77017;BME280;65949;53.132;17.930;2023-02-15T01:08:09;102873.04;;;1.32;80.02
77017;BME280;65949;53.132;17.930;2023-02-15T01:10:38;102868.41;;;1.38;79.98
77017;BME280;65949;53.132;17.930;2023-02-15T01:13:06;102868.69;;;1.42;79.82
77017;BME280;65949;53.132;17.930;2023-02-15T01:15:34;102868.66;;;1.41;79.90
77017;BME280;65949;53.132;17.930;2023-02-15T01:18:02;102868.20;;;1.36;79.95
77017;BME280;65949;53.132;17.930;2023-02-15T01:20:29;102865.11;;;1.34;79.96
77017;BME280;65949;53.132;17.930;2023-02-15T01:22:56;102861.27;;;1.33;80.01
77017;BME280;65949;53.132;17.930;2023-02-15T01:25:24;102859.66;;;1.34;79.92
77017;BME280;65949;53.132;17.930;2023-02-15T01:27:51;102849.55;;;1.36;79.95
77017;BME280;65949;53.132;17.930;2023-02-15T01:30:18;102846.52;;;1.37;79.99
77017;BME280;65949;53.132;17.930;2023-02-15T01:32:44;102846.00;;;1.37;79.98
77017;BME280;65949;53.132;17.930;2023-02-15T01:35:11;102840.71;;;1.37;79.98
77017;BME280;65949;53.132;17.930;2023-02-15T01:37:38;102844.04;;;1.36;80.02
77017;BME280;65949;53.132;17.930;2023-02-15T01:40:08;102835.15;;;1.34;80.08
77017;BME280;65949;53.132;17.930;2023-02-15T01:42:35;102830.74;;;1.34;80.15
77017;BME280;65949;53.132;17.930;2023-02-15T01:45:04;102832.48;;;1.37;80.22
77017;BME280;65949;53.132;17.930;2023-02-15T01:47:44;102832.80;;;1.43;80.19
77017;BME280;65949;53.132;17.930;2023-02-15T01:53:15;102825.92;;;1.49;79.96
77017;BME280;65949;53.132;17.930;2023-02-15T01:55:46;102823.54;;;1.47;79.86
77017;BME280;65949;53.132;17.930;2023-02-15T01:58:16;102825.21;;;1.42;79.86
77017;BME280;65949;53.132;17.930;2023-02-15T02:00:43;102824.27;;;1.37;79.95
77017;BME280;65949;53.132;17.930;2023-02-15T02:03:11;102822.39;;;1.32;79.95
77017;BME280;65949;53.132;17.930;2023-02-15T02:05:39;102820.52;;;1.28;79.97
77017;BME280;65949;53.132;17.930;2023-02-15T02:08:07;102822.24;;;1.24;79.81
77017;BME280;65949;53.132;17.930;2023-02-15T02:10:36;102821.94;;;1.20;80.03
77017;BME280;65949;53.132;17.930;2023-02-15T02:13:04;102817.52;;;1.20;80.02
77017;BME280;65949;53.132;17.930;2023-02-15T02:15:43;102816.79;;;1.24;80.00
77017;BME280;65949;53.132;17.930;2023-02-15T02:21:02;102813.92;;;1.29;79.95
77017;BME280;65949;53.132;17.930;2023-02-15T02:32:14;102812.96;;;1.08;79.64
77017;BME280;65949;53.132;17.930;2023-02-15T02:34:51;102812.81;;;0.98;79.67
77017;BME280;65949;53.132;17.930;2023-02-15T02:37:37;102809.08;;;0.92;79.78
77017;BME280;65949;53.132;17.930;2023-02-15T02:40:13;102810.19;;;0.89;79.93
77017;BME280;65949;53.132;17.930;2023-02-15T02:42:48;102813.90;;;0.88;79.91
77017;BME280;65949;53.132;17.930;2023-02-15T02:45:21;102811.04;;;0.88;79.77
77017;BME280;65949;53.132;17.930;2023-02-15T02:50:27;102807.55;;;0.86;79.90
77017;BME280;65949;53.132;17.930;2023-02-15T02:52:56;102806.12;;;0.93;79.94
77017;BME280;65949;53.132;17.930;2023-02-15T02:55:30;102800.31;;;0.98;79.82
77017;BME280;65949;53.132;17.930;2023-02-15T03:00:42;102801.52;;;1.06;79.75
77017;BME280;65949;53.132;17.930;2023-02-15T03:03:16;102794.85;;;1.04;79.53
77017;BME280;65949;53.132;17.930;2023-02-15T03:05:47;102794.45;;;0.98;79.68
77017;BME280;65949;53.132;17.930;2023-02-15T03:08:19;102792.60;;;0.93;79.85
77017;BME280;65949;53.132;17.930;2023-02-15T03:10:51;102794.98;;;0.89;80.10
77017;BME280;65949;53.132;17.930;2023-02-15T03:13:20;102789.88;;;0.85;80.20
77017;BME280;65949;53.132;17.930;2023-02-15T03:15:50;102793.80;;;0.81;80.22
77017;BME280;65949;53.132;17.930;2023-02-15T03:18:47;102792.10;;;0.81;80.46
77017;BME280;65949;53.132;17.930;2023-02-15T03:21:26;102794.32;;;0.81;80.16
77017;BME280;65949;53.132;17.930;2023-02-15T03:24:12;102795.34;;;0.83;80.48
77017;BME280;65949;53.132;17.930;2023-02-15T03:26:43;102791.79;;;0.90;80.44
77017;BME280;65949;53.132;17.930;2023-02-15T03:29:12;102792.33;;;0.96;80.40
77017;BME280;65949;53.132;17.930;2023-02-15T03:31:43;102785.80;;;1.00;80.10
77017;BME280;65949;53.132;17.930;2023-02-15T03:34:13;102783.76;;;1.03;80.14
77017;BME280;65949;53.132;17.930;2023-02-15T03:36:52;102784.15;;;1.06;80.02
77017;BME280;65949;53.132;17.930;2023-02-15T03:39:28;102785.69;;;1.05;79.95
77017;BME280;65949;53.132;17.930;2023-02-15T03:42:22;102782.18;;;1.00;79.96
77017;BME280;65949;53.132;17.930;2023-02-15T03:45:08;102784.98;;;0.88;80.12
77017;BME280;65949;53.132;17.930;2023-02-15T03:47:39;102782.23;;;0.88;80.44
77017;BME280;65949;53.132;17.930;2023-02-15T03:50:15;102776.21;;;0.92;80.26
77017;BME280;65949;53.132;17.930;2023-02-15T03:53:05;102771.06;;;0.92;80.14
77017;BME280;65949;53.132;17.930;2023-02-15T03:55:34;102768.71;;;0.88;80.19
77017;BME280;65949;53.132;17.930;2023-02-15T03:58:01;102767.85;;;0.86;80.13
77017;BME280;65949;53.132;17.930;2023-02-15T04:01:13;102766.51;;;0.88;80.24
77017;BME280;65949;53.132;17.930;2023-02-15T04:04:10;102765.73;;;0.91;80.21
77017;BME280;65949;53.132;17.930;2023-02-15T04:06:39;102765.71;;;0.93;80.20
77017;BME280;65949;53.132;17.930;2023-02-15T04:09:06;102767.52;;;0.98;80.22
77017;BME280;65949;53.132;17.930;2023-02-15T04:11:51;102768.27;;;1.06;80.17
77017;BME280;65949;53.132;17.930;2023-02-15T04:14:17;102773.50;;;1.14;80.23
77017;BME280;65949;53.132;17.930;2023-02-15T04:17:06;102773.31;;;1.22;80.09
77017;BME280;65949;53.132;17.930;2023-02-15T04:19:32;102775.69;;;1.24;80.14
77017;BME280;65949;53.132;17.930;2023-02-15T04:22:18;102773.14;;;1.24;80.07
77017;BME280;65949;53.132;17.930;2023-02-15T04:25:03;102775.33;;;1.26;80.13
77017;BME280;65949;53.132;17.930;2023-02-15T04:27:45;102774.38;;;1.29;80.15
77017;BME280;65949;53.132;17.930;2023-02-15T04:30:23;102770.19;;;1.29;79.99
77017;BME280;65949;53.132;17.930;2023-02-15T04:32:53;102769.92;;;1.29;80.01
77017;BME280;65949;53.132;17.930;2023-02-15T04:35:20;102765.73;;;1.28;80.00
77017;BME280;65949;53.132;17.930;2023-02-15T04:37:47;102767.77;;;1.28;79.77
77017;BME280;65949;53.132;17.930;2023-02-15T04:40:14;102769.41;;;1.29;80.02
77017;BME280;65949;53.132;17.930;2023-02-15T04:42:41;102769.46;;;1.30;79.87
77017;BME280;65949;53.132;17.930;2023-02-15T04:45:08;102766.96;;;1.33;80.12
77017;BME280;65949;53.132;17.930;2023-02-15T04:47:35;102765.66;;;1.36;79.73
77017;BME280;65949;53.132;17.930;2023-02-15T04:50:02;102758.46;;;1.36;79.82
77017;BME280;65949;53.132;17.930;2023-02-15T04:52:28;102762.03;;;1.38;79.95
77017;BME280;65949;53.132;17.930;2023-02-15T04:54:55;102757.12;;;1.39;79.92
77017;BME280;65949;53.132;17.930;2023-02-15T04:57:22;102752.14;;;1.34;79.74
77017;BME280;65949;53.132;17.930;2023-02-15T04:59:48;102750.80;;;1.32;79.78
77017;BME280;65949;53.132;17.930;2023-02-15T05:02:15;102756.68;;;1.31;79.89
77017;BME280;65949;53.132;17.930;2023-02-15T05:04:41;102756.50;;;1.26;79.58
77017;BME280;65949;53.132;17.930;2023-02-15T05:07:08;102760.43;;;1.21;79.89
77017;BME280;65949;53.132;17.930;2023-02-15T05:09:35;102758.35;;;1.15;79.93
77017;BME280;65949;53.132;17.930;2023-02-15T05:12:01;102755.34;;;1.12;79.82
77017;BME280;65949;53.132;17.930;2023-02-15T05:14:28;102752.35;;;1.10;79.86
77017;BME280;65949;53.132;17.930;2023-02-15T05:16:55;102753.33;;;1.10;80.00
77017;BME280;65949;53.132;17.930;2023-02-15T05:19:21;102750.92;;;1.14;79.95
77017;BME280;65949;53.132;17.930;2023-02-15T05:21:51;102752.57;;;1.18;79.86
77017;BME280;65949;53.132;17.930;2023-02-15T05:24:17;102751.33;;;1.23;80.01
77017;BME280;65949;53.132;17.930;2023-02-15T05:27:03;102752.65;;;1.29;79.62
77017;BME280;65949;53.132;17.930;2023-02-15T05:29:48;102753.68;;;1.32;79.68
77017;BME280;65949;53.132;17.930;2023-02-15T05:32:15;102755.24;;;1.32;79.71
77017;BME280;65949;53.132;17.930;2023-02-15T05:34:41;102756.73;;;1.33;79.65
77017;BME280;65949;53.132;17.930;2023-02-15T05:37:08;102756.97;;;1.32;79.71
77017;BME280;65949;53.132;17.930;2023-02-15T05:39:35;102755.56;;;1.30;79.65
77017;BME280;65949;53.132;17.930;2023-02-15T05:42:01;102753.32;;;1.29;79.77
77017;BME280;65949;53.132;17.930;2023-02-15T05:44:28;102750.61;;;1.26;79.60
77017;BME280;65949;53.132;17.930;2023-02-15T05:46:55;102749.89;;;1.27;79.73
77017;BME280;65949;53.132;17.930;2023-02-15T05:49:21;102747.22;;;1.26;79.75
77017;BME280;65949;53.132;17.930;2023-02-15T05:51:48;102746.91;;;1.26;79.78
77017;BME280;65949;53.132;17.930;2023-02-15T05:54:15;102742.45;;;1.28;79.74
77017;BME280;65949;53.132;17.930;2023-02-15T05:56:41;102743.50;;;1.29;79.84
77017;BME280;65949;53.132;17.930;2023-02-15T05:59:08;102744.80;;;1.30;79.65
77017;BME280;65949;53.132;17.930;2023-02-15T06:01:35;102743.95;;;1.30;79.68
77017;BME280;65949;53.132;17.930;2023-02-15T06:04:01;102742.59;;;1.30;79.88
77017;BME280;65949;53.132;17.930;2023-02-15T06:06:28;102741.27;;;1.28;79.71
77017;BME280;65949;53.132;17.930;2023-02-15T06:08:55;102747.25;;;1.22;79.82
77017;BME280;65949;53.132;17.930;2023-02-15T06:11:21;102740.45;;;1.18;79.73
77017;BME280;65949;53.132;17.930;2023-02-15T06:13:48;102745.67;;;1.10;79.86
77017;BME280;65949;53.132;17.930;2023-02-15T06:16:14;102743.01;;;1.05;79.74
77017;BME280;65949;53.132;17.930;2023-02-15T06:18:42;102738.73;;;1.05;79.74
77017;BME280;65949;53.132;17.930;2023-02-15T06:21:09;102738.56;;;1.05;79.81
77017;BME280;65949;53.132;17.930;2023-02-15T06:23:36;102741.99;;;1.09;79.82
77017;BME280;65949;53.132;17.930;2023-02-15T06:26:02;102740.08;;;1.11;79.80
77017;BME280;65949;53.132;17.930;2023-02-15T06:28:29;102738.12;;;1.15;79.77
77017;BME280;65949;53.132;17.930;2023-02-15T06:30:55;102736.80;;;1.20;80.01
77017;BME280;65949;53.132;17.930;2023-02-15T06:33:22;102738.30;;;1.25;79.92
77017;BME280;65949;53.132;17.930;2023-02-15T06:35:49;102741.23;;;1.28;79.75
77017;BME280;65949;53.132;17.930;2023-02-15T06:38:16;102738.39;;;1.31;79.77
77017;BME280;65949;53.132;17.930;2023-02-15T06:40:43;102737.16;;;1.33;79.78
77017;BME280;65949;53.132;17.930;2023-02-15T06:43:10;102736.39;;;1.34;79.70
77017;BME280;65949;53.132;17.930;2023-02-15T06:45:37;102734.21;;;1.35;79.73
77017;BME280;65949;53.132;17.930;2023-02-15T06:48:04;102732.67;;;1.37;79.72
77017;BME280;65949;53.132;17.930;2023-02-15T06:50:33;102733.94;;;1.36;79.68
77017;BME280;65949;53.132;17.930;2023-02-15T06:53:00;102731.80;;;1.37;79.74
77017;BME280;65949;53.132;17.930;2023-02-15T06:55:27;102729.86;;;1.41;79.68
77017;BME280;65949;53.132;17.930;2023-02-15T06:57:54;102732.20;;;1.44;79.73
77017;BME280;65949;53.132;17.930;2023-02-15T07:00:21;102731.34;;;1.48;79.62
77017;BME280;65949;53.132;17.930;2023-02-15T07:02:56;102732.34;;;1.51;79.69
77017;BME280;65949;53.132;17.930;2023-02-15T07:05:25;102728.52;;;1.52;79.43
77017;BME280;65949;53.132;17.930;2023-02-15T07:07:57;102728.57;;;1.50;79.54
77017;BME280;65949;53.132;17.930;2023-02-15T07:10:24;102722.21;;;1.50;79.65
77017;BME280;65949;53.132;17.930;2023-02-15T07:12:52;102719.38;;;1.49;79.47
77017;BME280;65949;53.132;17.930;2023-02-15T07:15:21;102714.17;;;1.46;79.47
77017;BME280;65949;53.132;17.930;2023-02-15T07:17:48;102713.83;;;1.44;79.62
77017;BME280;65949;53.132;17.930;2023-02-15T07:20:20;102712.02;;;1.43;79.74
77017;BME280;65949;53.132;17.930;2023-02-15T07:22:48;102710.34;;;1.43;79.68
77017;BME280;65949;53.132;17.930;2023-02-15T07:25:16;102711.68;;;1.42;79.51
77017;BME280;65949;53.132;17.930;2023-02-15T07:27:43;102713.73;;;1.42;79.45
77017;BME280;65949;53.132;17.930;2023-02-15T07:30:14;102712.02;;;1.42;79.35
77017;BME280;65949;53.132;17.930;2023-02-15T07:32:41;102713.39;;;1.42;79.66
77017;BME280;65949;53.132;17.930;2023-02-15T07:35:27;102712.58;;;1.50;79.46
77017;BME280;65949;53.132;17.930;2023-02-15T07:37:53;102715.15;;;1.61;79.37
77017;BME280;65949;53.132;17.930;2023-02-15T07:40:20;102714.28;;;1.70;79.29
77017;BME280;65949;53.132;17.930;2023-02-15T07:42:50;102711.73;;;1.77;79.17
77017;BME280;65949;53.132;17.930;2023-02-15T07:45:19;102709.86;;;1.82;79.07
77017;BME280;65949;53.132;17.930;2023-02-15T07:47:46;102705.75;;;1.86;79.00
77017;BME280;65949;53.132;17.930;2023-02-15T07:50:14;102704.69;;;1.90;78.99
77017;BME280;65949;53.132;17.930;2023-02-15T07:52:40;102703.25;;;1.92;78.94
77017;BME280;65949;53.132;17.930;2023-02-15T07:55:07;102699.67;;;1.95;78.93
77017;BME280;65949;53.132;17.930;2023-02-15T07:57:35;102700.11;;;2.00;78.91
77017;BME280;65949;53.132;17.930;2023-02-15T08:00:02;102699.34;;;2.08;78.74
77017;BME280;65949;53.132;17.930;2023-02-15T08:02:39;102692.48;;;2.13;78.67
77017;BME280;65949;53.132;17.930;2023-02-15T08:05:07;102686.67;;;2.14;78.73
77017;BME280;65949;53.132;17.930;2023-02-15T08:07:33;102685.55;;;2.19;78.72
77017;BME280;65949;53.132;17.930;2023-02-15T08:10:00;102682.00;;;2.24;78.58
77017;BME280;65949;53.132;17.930;2023-02-15T08:12:27;102675.42;;;2.29;78.67
77017;BME280;65949;53.132;17.930;2023-02-15T08:14:53;102672.20;;;2.38;78.59
77017;BME280;65949;53.132;17.930;2023-02-15T08:17:20;102667.23;;;2.48;78.60
77017;BME280;65949;53.132;17.930;2023-02-15T08:19:47;102662.65;;;2.56;78.40
77017;BME280;65949;53.132;17.930;2023-02-15T08:22:14;102661.73;;;2.63;78.23
77017;BME280;65949;53.132;17.930;2023-02-15T08:24:41;102661.69;;;2.71;78.37
77017;BME280;65949;53.132;17.930;2023-02-15T08:27:10;102655.29;;;2.74;78.06
77017;BME280;65949;53.132;17.930;2023-02-15T08:29:38;102651.10;;;2.77;78.13
77017;BME280;65949;53.132;17.930;2023-02-15T08:32:08;102649.80;;;2.81;77.89
77017;BME280;65949;53.132;17.930;2023-02-15T08:34:39;102652.92;;;2.87;77.83
77017;BME280;65949;53.132;17.930;2023-02-15T08:37:06;102651.55;;;2.96;77.74
77017;BME280;65949;53.132;17.930;2023-02-15T08:39:33;102649.57;;;3.05;77.79
77017;BME280;65949;53.132;17.930;2023-02-15T08:41:59;102650.23;;;3.10;77.77
77017;BME280;65949;53.132;17.930;2023-02-15T08:44:27;102649.61;;;3.15;77.54
77017;BME280;65949;53.132;17.930;2023-02-15T08:46:53;102646.23;;;3.16;77.52
77017;BME280;65949;53.132;17.930;2023-02-15T08:49:21;102644.73;;;3.20;77.54
77017;BME280;65949;53.132;17.930;2023-02-15T08:51:49;102640.53;;;3.24;77.16
77017;BME280;65949;53.132;17.930;2023-02-15T08:54:19;102638.58;;;3.27;77.45
77017;BME280;65949;53.132;17.930;2023-02-15T08:56:46;102638.88;;;3.30;77.00
77017;BME280;65949;53.132;17.930;2023-02-15T08:59:21;102633.83;;;3.31;77.16
77017;BME280;65949;53.132;17.930;2023-02-15T09:01:51;102633.13;;;3.34;77.02
77017;BME280;65949;53.132;17.930;2023-02-15T09:04:18;102629.05;;;3.37;77.02
77017;BME280;65949;53.132;17.930;2023-02-15T09:06:46;102625.52;;;3.43;76.85
77017;BME280;65949;53.132;17.930;2023-02-15T09:09:14;102620.98;;;3.50;77.21
77017;BME280;65949;53.132;17.930;2023-02-15T09:11:42;102624.54;;;3.62;76.62
77017;BME280;65949;53.132;17.930;2023-02-15T09:14:12;102621.86;;;3.71;76.50
77017;BME280;65949;53.132;17.930;2023-02-15T09:16:41;102618.91;;;3.82;76.62
77017;BME280;65949;53.132;17.930;2023-02-15T09:19:08;102616.63;;;3.93;76.55
77017;BME280;65949;53.132;17.930;2023-02-15T09:21:36;102610.82;;;4.01;76.55
77017;BME280;65949;53.132;17.930;2023-02-15T09:24:06;102612.60;;;4.08;76.37
77017;BME280;65949;53.132;17.930;2023-02-15T09:26:36;102614.59;;;4.14;76.00
77017;BME280;65949;53.132;17.930;2023-02-15T09:29:03;102613.84;;;4.16;75.93
77017;BME280;65949;53.132;17.930;2023-02-15T09:31:38;102614.81;;;4.17;75.92
77017;BME280;65949;53.132;17.930;2023-02-15T09:34:05;102616.11;;;4.22;75.77
77017;BME280;65949;53.132;17.930;2023-02-15T09:36:34;102613.59;;;4.30;75.72
77017;BME280;65949;53.132;17.930;2023-02-15T09:39:04;102612.35;;;4.36;75.87
77017;BME280;65949;53.132;17.930;2023-02-15T09:53:28;102598.54;;;4.91;74.20
77017;BME280;65949;53.132;17.930;2023-02-15T09:56:02;102592.95;;;4.98;74.00
77017;BME280;65949;53.132;17.930;2023-02-15T10:07:04;102584.11;;;4.97;71.38
77017;BME280;65949;53.132;17.930;2023-02-15T10:14:59;102581.77;;;4.79;71.88
77017;BME280;65949;53.132;17.930;2023-02-15T10:17:53;102579.67;;;4.83;71.13
77017;BME280;65949;53.132;17.930;2023-02-15T10:28:53;102574.67;;;4.74;70.65
77017;BME280;65949;53.132;17.930;2023-02-15T10:39:23;102570.34;;;4.60;71.03
77017;BME280;65949;53.132;17.930;2023-02-15T10:45:18;102564.39;;;4.56;70.66
77017;BME280;65949;53.132;17.930;2023-02-15T10:53:24;102558.52;;;4.55;70.17
77017;BME280;65949;53.132;17.930;2023-02-15T10:56:08;102557.45;;;4.50;70.48
77017;BME280;65949;53.132;17.930;2023-02-15T10:58:51;102552.98;;;4.49;70.98
77017;BME280;65949;53.132;17.930;2023-02-15T11:01:27;102553.56;;;4.47;70.32
77017;BME280;65949;53.132;17.930;2023-02-15T11:06:55;102544.77;;;4.50;70.12
77017;BME280;65949;53.132;17.930;2023-02-15T11:09:36;102542.39;;;4.57;70.45
77017;BME280;65949;53.132;17.930;2023-02-15T11:12:10;102536.69;;;4.62;70.14
77017;BME280;65949;53.132;17.930;2023-02-15T11:17:25;102526.58;;;4.74;69.62
77017;BME280;65949;53.132;17.930;2023-02-15T11:20:00;102525.84;;;4.77;69.57
77017;BME280;65949;53.132;17.930;2023-02-15T11:22:32;102525.55;;;4.79;69.07
77017;BME280;65949;53.132;17.930;2023-02-15T11:25:01;102526.94;;;4.80;69.48
77017;BME280;65949;53.132;17.930;2023-02-15T11:27:31;102519.59;;;4.84;69.40
77017;BME280;65949;53.132;17.930;2023-02-15T11:30:04;102513.73;;;4.90;69.46
77017;BME280;65949;53.132;17.930;2023-02-15T11:32:50;102506.84;;;4.99;68.94
77017;BME280;65949;53.132;17.930;2023-02-15T11:35:26;102505.45;;;5.06;69.25
77017;BME280;65949;53.132;17.930;2023-02-15T11:38:06;102504.77;;;5.08;69.21
77017;BME280;65949;53.132;17.930;2023-02-15T11:40:45;102502.92;;;5.11;68.89
77017;BME280;65949;53.132;17.930;2023-02-15T11:43:31;102493.11;;;5.14;68.96
77017;BME280;65949;53.132;17.930;2023-02-15T11:45:59;102493.48;;;5.12;68.46
77017;BME280;65949;53.132;17.930;2023-02-15T11:48:27;102491.96;;;5.07;68.95
77017;BME280;65949;53.132;17.930;2023-02-15T11:50:56;102491.08;;;5.07;69.04
77017;BME280;65949;53.132;17.930;2023-02-15T11:53:23;102490.21;;;5.14;68.62
77017;BME280;65949;53.132;17.930;2023-02-15T11:55:54;102492.30;;;5.21;68.44
77017;BME280;65949;53.132;17.930;2023-02-15T11:58:33;102495.86;;;5.23;68.64
77017;BME280;65949;53.132;17.930;2023-02-15T12:01:14;102492.39;;;5.26;68.74
77017;BME280;65949;53.132;17.930;2023-02-15T12:03:47;102486.36;;;5.34;68.45
77017;BME280;65949;53.132;17.930;2023-02-15T12:06:29;102483.32;;;5.38;68.47
77017;BME280;65949;53.132;17.930;2023-02-15T12:09:05;102482.91;;;5.44;68.52
77017;BME280;65949;53.132;17.930;2023-02-15T12:11:38;102478.73;;;5.37;68.18
77017;BME280;65949;53.132;17.930;2023-02-15T12:14:07;102474.61;;;5.31;68.60
77017;BME280;65949;53.132;17.930;2023-02-15T12:16:51;102473.98;;;5.34;68.52
77017;BME280;65949;53.132;17.930;2023-02-15T12:19:38;102470.95;;;5.36;68.27
77017;BME280;65949;53.132;17.930;2023-02-15T12:22:20;102466.38;;;5.34;68.14
77017;BME280;65949;53.132;17.930;2023-02-15T12:24:49;102460.17;;;5.26;68.18
77017;BME280;65949;53.132;17.930;2023-02-15T12:27:20;102456.75;;;5.24;68.36
77017;BME280;65949;53.132;17.930;2023-02-15T12:29:51;102456.25;;;5.27;67.76
77017;BME280;65949;53.132;17.930;2023-02-15T12:32:22;102452.96;;;5.30;68.21
77017;BME280;65949;53.132;17.930;2023-02-15T12:34:51;102450.50;;;5.35;68.46
77017;BME280;65949;53.132;17.930;2023-02-15T12:37:24;102454.14;;;5.41;68.24
77017;BME280;65949;53.132;17.930;2023-02-15T12:39:57;102451.05;;;5.47;68.28
77017;BME280;65949;53.132;17.930;2023-02-15T12:42:26;102451.58;;;5.54;68.02
77017;BME280;65949;53.132;17.930;2023-02-15T12:45:19;102442.23;;;5.56;67.75
77017;BME280;65949;53.132;17.930;2023-02-15T12:47:46;102436.27;;;5.61;67.92
77017;BME280;65949;53.132;17.930;2023-02-15T12:50:22;102428.55;;;5.64;67.66
77017;BME280;65949;53.132;17.930;2023-02-15T12:53:06;102426.61;;;5.56;67.86
77017;BME280;65949;53.132;17.930;2023-02-15T12:55:34;102422.90;;;5.46;67.93
77017;BME280;65949;53.132;17.930;2023-02-15T12:58:18;102421.00;;;5.49;68.14
77017;BME280;65949;53.132;17.930;2023-02-15T13:00:46;102422.52;;;5.56;68.30
77017;BME280;65949;53.132;17.930;2023-02-15T13:03:21;102418.84;;;5.61;68.14
77017;BME280;65949;53.132;17.930;2023-02-15T13:05:55;102417.31;;;5.63;68.26
77017;BME280;65949;53.132;17.930;2023-02-15T13:08:33;102415.21;;;5.61;67.58
77017;BME280;65949;53.132;17.930;2023-02-15T13:11:08;102409.50;;;5.54;67.55
77017;BME280;65949;53.132;17.930;2023-02-15T13:14:19;102408.59;;;5.49;67.15
77017;BME280;65949;53.132;17.930;2023-02-15T13:16:50;102404.67;;;5.38;67.46
77017;BME280;65949;53.132;17.930;2023-02-15T13:19:26;102400.14;;;5.33;67.51
77017;BME280;65949;53.132;17.930;2023-02-15T13:21:56;102399.77;;;5.32;67.70
77017;BME280;65949;53.132;17.930;2023-02-15T13:24:32;102399.72;;;5.30;67.77
77017;BME280;65949;53.132;17.930;2023-02-15T13:27:00;102402.54;;;5.33;68.34
77017;BME280;65949;53.132;17.930;2023-02-15T13:29:30;102399.88;;;5.36;67.86
77017;BME280;65949;53.132;17.930;2023-02-15T13:32:04;102398.22;;;5.34;68.10
77017;BME280;65949;53.132;17.930;2023-02-15T13:34:34;102399.23;;;5.31;67.97
77017;BME280;65949;53.132;17.930;2023-02-15T13:40:23;102393.20;;;5.24;68.19
77017;BME280;65949;53.132;17.930;2023-02-15T13:42:55;102396.30;;;5.18;68.11
77017;BME280;65949;53.132;17.930;2023-02-15T13:48:44;102385.58;;;5.08;68.22
77017;BME280;65949;53.132;17.930;2023-02-15T14:00:32;102372.85;;;5.15;68.77
77017;BME280;65949;53.132;17.930;2023-02-15T14:21:06;102370.95;;;4.87;68.90
77017;BME280;65949;53.132;17.930;2023-02-15T14:31:41;102361.95;;;4.65;69.62
77017;BME280;65949;53.132;17.930;2023-02-15T14:34:21;102356.35;;;4.66;69.48
77017;BME280;65949;53.132;17.930;2023-02-15T14:36:50;102357.66;;;4.64;69.28
77017;BME280;65949;53.132;17.930;2023-02-15T14:42:35;102355.19;;;4.61;69.87
77017;BME280;65949;53.132;17.930;2023-02-15T14:45:16;102352.91;;;4.60;69.69
77017;BME280;65949;53.132;17.930;2023-02-15T14:48:03;102351.45;;;4.61;69.82
77017;BME280;65949;53.132;17.930;2023-02-15T14:55:41;102336.80;;;4.50;70.26
77017;BME280;65949;53.132;17.930;2023-02-15T14:58:12;102333.98;;;4.46;70.35
77017;BME280;65949;53.132;17.930;2023-02-15T15:00:41;102330.66;;;4.42;70.15
77017;BME280;65949;53.132;17.930;2023-02-15T15:03:19;102333.84;;;4.32;70.30
77017;BME280;65949;53.132;17.930;2023-02-15T15:05:53;102331.13;;;4.23;70.47
77017;BME280;65949;53.132;17.930;2023-02-15T15:08:40;102328.77;;;4.16;70.80
77017;BME280;65949;53.132;17.930;2023-02-15T15:13:59;102324.84;;;4.10;70.92
77017;BME280;65949;53.132;17.930;2023-02-15T15:19:05;102313.58;;;4.04;71.05
77017;BME280;65949;53.132;17.930;2023-02-15T15:27:38;102315.27;;;3.94;71.59
77017;BME280;65949;53.132;17.930;2023-02-15T15:32:56;102306.73;;;3.78;71.66